Startpagina
METAR-TAF:

METAR-TAF

Vliegvelden :

Soldotna, Alaska, Verenigde Staten

breedte: 60-29N, lengte: 151-02W, hoogte: 33 m

Actueel weer

Dit bericht is 20 minuten geleden gemaakt, om 11:28 UTC
Wind 6 kt uit het zuidwesten
Temperatuur 6°C
Vochtigheid 100%
Druk 991 hPa
Zicht: 16.1 km
Weinig wolken op 900 ft
Geheel bewolkt op 5500 ft
lichte regen

METAR: PASX 161128Z AUTO 23006KT 10SM -RA FEW009 OVC055 06/06 A2926 RMK AO2 P0006

Tijdstip: 03:48 (11:48 UTC)


TAF: ontbreekt

Waarnemingen en weersverwachtingen van meer dan 4000 vliegvelden (METAR en TAF).

De beschikbare stations zijn de gele en rode punten op de kaart.

Ga met uw muis naar het station om de naam te zien.

Klik dan om waarnemingen en weersverwachtingen te zien.

kaart wijzigen: klik op de groene knoppen met een zwart kruis om in te zoomen, op de groene knop met een streepje om uit te zoomen of op de groene pijlen voor aangrenzende kaarten.


METAR-TAF: